METAR Data
IDs: Format: Raw Decoded Include TAF

Data at: 1033 UTC 07 Dec 2022

KSIY 070953Z AUTO 00000KT 10SM CLR M04/M06 A3017 RMK AO2 SLP242 I1000 T10391056